Flight Track Log - Related Links

Times and Time Zones

All times are in EDT time to prevent confusion due to time zone crossing. See the NKS216 flight status page for this flight to view local times or setup timezone preferences in your user account.

Time Position Orientation Groundspeed Altitude Reporting Facility
EDT Latitude Longitude Course Direction KTS MPH feet Rate Location/Type
Thu 04:25:55 AM 33.9230 -118.4550 225° Southwest 191 220 1,900  Level FlightAware ADS-B
Thu 04:26:24 AM 33.8960 -118.4740 210° Southwest 227 261 2,600 1,556 Climbing FlightAware ADS-B
Thu 04:26:49 AM 33.8690 -118.4810 192° South 263 303 3,300 2,250 Climbing FlightAware ADS-B
Thu 04:27:04 AM 33.8490 -118.4860 192° South 269 310 4,100 3,067 Climbing FlightAware ADS-B
Thu 04:27:34 AM 33.8140 -118.4930 189° South 275 316 5,600 3,049 Climbing FlightAware ADS-B
Thu 04:28:05 AM 33.7740 -118.5030 192° South 280 322 7,200 3,100 Climbing FlightAware ADS-B
Thu 04:28:34 AM 33.7350 -118.5120 191° South 284 327 8,700 2,783 Climbing FlightAware ADS-B
Thu 04:29:14 AM 33.6880 -118.4880 157° South 295 339 10,400 2,250 Climbing FlightAware ADS-B
Thu 04:29:30 AM 33.6790 -118.4620 113° Southeast 310 357 10,800 1,200 Climbing FlightAware ADS-B
Thu 04:29:54 AM 33.6680 -118.4250 110° East 332 382 11,200 1,765 Climbing FlightAware ADS-B
Thu 04:31:46 AM 33.6440 -118.2010 97° East 378 435 14,800 2,013 Climbing FlightAware ADS-B
Thu 04:32:26 AM 33.6410 -118.1190 92° East 380 437 16,300 2,025 Climbing FlightAware ADS-B
Thu 04:33:06 AM 33.6340 -118.0320 95° East 392 451 17,500 1,714 Climbing FlightAware ADS-B
Thu 04:33:50 AM 33.6270 -117.9350 95° East 404 465 18,700 1,786 Climbing FlightAware ADS-B
Thu 04:34:30 AM 33.6210 -117.8450 95° East 408 470 20,000 1,814 Climbing FlightAware ADS-B
Thu 04:35:16 AM 33.6130 -117.7410 95° East 413 475 21,300 1,568 Climbing FlightAware ADS-B
Thu 04:35:58 AM 33.6070 -117.6450 94° East 420 483 22,300 1,463 Climbing FlightAware ADS-B
Thu 04:36:38 AM 33.6000 -117.5500 95° East 428 493 23,300 1,463 Climbing FlightAware ADS-B
Thu 04:37:20 AM 33.5930 -117.4520 95° East 433 498 24,300 1,429 Climbing FlightAware ADS-B
Thu 04:38:02 AM 33.5860 -117.3510 95° East 438 504 25,300 1,500 Climbing FlightAware ADS-B
Thu 04:38:40 AM 33.5790 -117.2580 95° East 438 504 26,300 1,286 Climbing FlightAware ADS-B
Thu 04:39:26 AM 33.5710 -117.1490 95° East 448 516 27,100 1,091 Climbing FlightAware ADS-B
Thu 04:40:08 AM 33.5630 -117.0390 95° East 456 525 27,900 1,071 Climbing FlightAware ADS-B
Thu 04:40:50 AM 33.5550 -116.9350 95° East 462 532 28,600 1,186 Climbing FlightAware ADS-B
Thu 04:41:34 AM 33.5460 -116.8220 95° East 459 528 29,600 1,333 Climbing FlightAware ADS-B
Thu 04:42:11 AM 33.5390 -116.7300 95° East 458 527 30,400 1,373 Climbing FlightAware ADS-B
Thu 04:42:57 AM 33.5300 -116.6130 95° East 455 524 31,500 1,744 Climbing FlightAware ADS-B
Thu 04:43:37 AM 33.5220 -116.5150 96° East 440 506 32,900 1,643 Climbing FlightAware ADS-B
Thu 04:44:21 AM 33.5140 -116.4090 95° East 440 506 33,800 807 Climbing FlightAware ADS-B
Thu 04:48:12 AM 33.4690 -115.8720 96° East 458 527 36,600 706 Climbing FlightAware ADS-B
Thu 04:48:53 AM 33.4570 -115.7310 96° East 453 521 37,000 247 Climbing FlightAware ADS-B
Thu 04:49:49 AM 33.4470 -115.6020 95° East 450 518 37,000  Level FlightAware ADS-B
Thu 04:50:25 AM 33.4410 -115.5260 95° East 450 518 37,000  Level FlightAware ADS-B
Thu 04:51:18 AM 33.4330 -115.4140 95° East 450 518 37,000  Level FlightAware ADS-B
Thu 04:51:57 AM 33.4170 -115.2750 98° East 453 521 37,000  Level FlightAware ADS-B
Thu 04:52:39 AM 33.4090 -115.1840 96° East 453 521 37,000  Level FlightAware ADS-B
Thu 04:53:15 AM 33.4030 -115.1080 95° East 453 521 37,000  Level FlightAware ADS-B
Thu 04:54:17 AM 33.3860 -114.9260 96° East 453 521 37,000  Level FlightAware ADS-B
Thu 04:54:58 AM 33.3780 -114.8400 96° East 453 521 37,000  Level FlightAware ADS-B
Thu 04:55:35 AM 33.3710 -114.7620 96° East 453 521 37,000  Level FlightAware ADS-B
Thu 04:56:21 AM 33.3630 -114.6640 96° East 453 521 37,000  Level FlightAware ADS-B
Thu 04:56:58 AM 33.3560 -114.5860 96° East 453 521 37,000  Level FlightAware ADS-B
Thu 04:57:44 AM 33.3470 -114.4880 96° East 453 521 37,000  Level FlightAware ADS-B
Thu 04:58:27 AM 33.3270 -114.3070 97° East 447 514 37,000  Level FlightAware ADS-B
Thu 04:59:09 AM 33.3170 -114.2050 97° East 448 516 37,000  Level FlightAware ADS-B
Thu 04:59:53 AM 33.3060 -114.0960 97° East 446 513 37,000  Level FlightAware ADS-B
Thu 05:00:29 AM 33.2970 -114.0100 97° East 445 512 37,000  Level FlightAware ADS-B
Thu 05:01:17 AM 33.2860 -113.8930 96° East 443 510 37,000  Level FlightAware ADS-B
Thu 05:01:59 AM 33.2750 -113.7900 97° East 441 507 37,000  Level FlightAware ADS-B
Thu 05:02:43 AM 33.2640 -113.6850 97° East 437 503 37,000  Level FlightAware ADS-B
Thu 05:03:22 AM 33.2620 -113.6560 95° East 437 503 37,000  Level FlightAware ADS-B
Thu 05:03:59 AM 33.2520 -113.5670 98° East 435 501 37,000  Level FlightAware ADS-B
Thu 05:04:45 AM 33.2410 -113.4560 97° East 433 498 37,000  Level FlightAware ADS-B
Thu 05:05:26 AM 33.2300 -113.3590 98° East 432 497 37,000  Level FlightAware ADS-B
Thu 05:06:09 AM 33.2200 -113.2590 97° East 432 497 37,000  Level FlightAware ADS-B
Thu 05:06:55 AM 33.2020 -113.0870 97° East 433 498 37,000  Level FlightAware ADS-B
Thu 05:07:31 AM 33.1930 -113.0030 97° East 435 501 37,000  Level FlightAware ADS-B
Thu 05:08:18 AM 33.1800 -112.8910 98° East 438 504 37,000  Level FlightAware ADS-B
Thu 05:08:58 AM 33.1690 -112.7940 98° East 439 505 37,000 75 Level FlightAware ADS-B
Thu 05:09:38 AM 33.1590 -112.6970 97° East 440 506 37,100  Climbing FlightAware ADS-B
Thu 05:10:22 AM 33.1470 -112.5910 98° East 439 505 37,000 -70 Descending FlightAware ADS-B
Thu 05:11:04 AM 33.1360 -112.4920 98° East 439 505 37,000  Level FlightAware ADS-B
Thu 05:11:48 AM 33.1240 -112.3900 98° East 439 505 37,000  Level FlightAware ADS-B
Thu 05:12:23 AM 33.1150 -112.3050 97° East 438 504 37,000  Level FlightAware ADS-B
Thu 05:13:01 AM 33.1040 -112.2130 98° East 438 504 37,000  Level FlightAware ADS-B
Thu 05:13:47 AM 33.0920 -112.1040 97° East 439 505 37,000  Level FlightAware ADS-B
Thu 05:14:28 AM 33.0800 -112.0060 98° East 439 505 37,000  Level FlightAware ADS-B
Thu 05:15:03 AM 33.0700 -111.9240 98° East 439 505 37,000  Level FlightAware ADS-B
Thu 05:15:51 AM 33.0560 -111.8080 98° East 440 506 37,000  Level FlightAware ADS-B
Thu 05:16:33 AM 33.0450 -111.7090 98° East 440 506 37,000  Level FlightAware ADS-B
Thu 05:17:10 AM 33.0350 -111.6210 98° East 439 505 37,000  Level FlightAware ADS-B
Thu 05:17:56 AM 33.0210 -111.5110 99° East 439 505 37,000  Level FlightAware ADS-B
Thu 05:18:39 AM 33.0090 -111.4060 98° East 439 505 37,000  Level FlightAware ADS-B
Thu 05:19:23 AM 32.9960 -111.3020 98° East 440 506 37,000  Level FlightAware ADS-B
Thu 05:20:03 AM 32.9840 -111.2050 98° East 441 507 37,000  Level FlightAware ADS-B
Thu 05:20:41 AM 32.9730 -111.1150 98° East 441 507 37,000  Level FlightAware ADS-B
Thu 05:21:29 AM 32.9580 -110.9970 99° East 442 509 37,000  Level FlightAware ADS-B
Thu 05:22:09 AM 32.9460 -110.9010 98° East 441 507 37,000  Level FlightAware ADS-B
Thu 05:22:54 AM 32.9330 -110.7970 98° East 441 507 37,000  Level FlightAware ADS-B
Thu 05:23:36 AM 32.9200 -110.6960 99° East 441 507 37,000  Level FlightAware ADS-B
Thu 05:24:14 AM 32.9080 -110.6060 99° East 440 506 37,000  Level FlightAware ADS-B
Thu 05:24:58 AM 32.8940 -110.4970 99° East 439 505 37,000  Level FlightAware ADS-B
Thu 05:25:38 AM 32.8820 -110.4000 98° East 438 504 37,000  Level FlightAware ADS-B
Thu 05:26:22 AM 32.8690 -110.2990 99° East 439 505 37,000  Level FlightAware ADS-B
Thu 05:27:02 AM 32.8560 -110.2040 99° East 440 506 37,000  Level FlightAware ADS-B
Thu 05:27:42 AM 32.8430 -110.1050 99° East 441 507 37,000  Level FlightAware ADS-B
Thu 05:28:28 AM 32.8280 -109.9960 99° East 442 509 37,000  Level FlightAware ADS-B
Thu 05:29:06 AM 32.8160 -109.9050 99° East 443 510 37,000  Level FlightAware ADS-B
Thu 05:29:52 AM 32.8010 -109.7920 99° East 444 511 37,000  Level FlightAware ADS-B
Thu 05:33:38 AM 32.7270 -109.2480 99° East 444 511 37,000  Level FlightAware ADS-B
Thu 05:34:16 AM 32.7140 -109.1570 100° East 445 512 37,000  Level FlightAware ADS-B
Thu 05:35:00 AM 32.6990 -109.0510 100° East 446 513 37,000  Level FlightAware ADS-B
Thu 05:35:42 AM 32.6850 -108.9530 100° East 446 513 37,000  Level FlightAware ADS-B
Thu 05:36:26 AM 32.6690 -108.8460 100° East 446 513 37,000  Level FlightAware ADS-B
Thu 05:37:05 AM 32.6560 -108.7530 99° East 447 514 37,000  Level FlightAware ADS-B
Thu 05:37:42 AM 32.6430 -108.6610 100° East 448 516 37,000  Level FlightAware ADS-B
Thu 05:38:19 AM 32.6300 -108.5730 100° East 449 517 37,000  Level FlightAware ADS-B
Thu 05:39:00 AM 32.6150 -108.4730 100° East 450 518 37,000  Level FlightAware ADS-B
Thu 05:39:40 AM 32.6010 -108.3770 100° East 451 519 37,000  Level FlightAware ADS-B
Thu 05:40:22 AM 32.5860 -108.2750 100° East 453 521 37,000  Level FlightAware ADS-B
Thu 05:41:41 AM 32.5590 -108.0920 100° East 452 520 37,000  Level FlightAware ADS-B
Thu 05:42:27 AM 32.5420 -107.9800 100° East 454 522 37,000  Level FlightAware ADS-B
Thu 05:43:50 AM 32.5160 -107.8070 100° East 454 522 37,000  Level FlightAware ADS-B
Thu 05:44:37 AM 32.4920 -107.6520 100° East 37,000  Level FlightAware ADS-B
Thu 05:46:22 AM 32.4530 -107.3990 100° East 457 526 37,000  Level FlightAware ADS-B
Thu 05:47:23 AM 32.4290 -107.2420 100° East 454 522 37,000  Level FlightAware ADS-B
Thu 05:48:04 AM 32.4130 -107.1440 101° East 454 522 37,000  Level FlightAware ADS-B
Thu 05:48:42 AM 32.3990 -107.0550 101° East 454 522 37,000  Level FlightAware ADS-B
Thu 05:49:15 AM 32.3860 -106.9720 100° East 454 522 37,000  Level FlightAware ADS-B
Thu 05:49:56 AM 32.3700 -106.8710 101° East 456 525 37,000  Level FlightAware ADS-B
Thu 05:51:08 AM 32.3420 -106.6970 101° East 456 525 37,000  Level FlightAware ADS-B
Thu 05:51:48 AM 32.3260 -106.5980 101° East 456 525 37,000  Level FlightAware ADS-B
Thu 05:52:34 AM 32.3080 -106.4870 101° East 454 522 37,000  Level FlightAware ADS-B
Thu 05:53:14 AM 32.2920 -106.3900 101° East 453 521 37,000  Level FlightAware ADS-B
Thu 05:53:44 AM 32.2800 -106.3170 101° East 453 521 37,000  Level FlightAware ADS-B
Thu 05:54:19 AM 32.2660 -106.2330 101° East 453 521 37,000  Level FlightAware ADS-B
Thu 05:55:03 AM 32.2480 -106.1240 101° East 454 522 37,000  Level FlightAware ADS-B
Thu 05:55:49 AM 32.2300 -106.0160 101° East 456 525 37,000  Level FlightAware ADS-B
Thu 05:56:43 AM 32.2110 -105.8990 101° East 457 526 37,000  Level FlightAware ADS-B
Thu 05:57:44 AM 32.1900 -105.7720 101° East 457 526 37,000  Level FlightAware ADS-B
Thu 05:58:23 AM 32.1770 -105.6910 101° East 457 526 37,000  Level FlightAware ADS-B
Thu 05:58:59 AM 32.1640 -105.6160 102° East 457 526 37,000  Level FlightAware ADS-B
Thu 05:59:47 AM 32.1480 -105.5160 101° East 457 526 37,000  Level FlightAware ADS-B
Thu 06:00:22 AM 32.1360 -105.4430 101° East 457 526 37,000  Level FlightAware ADS-B
Thu 06:01:11 AM 32.1190 -105.3410 101° East 457 526 37,000  Level FlightAware ADS-B
Thu 06:01:48 AM 32.1060 -105.2630 101° East 457 526 37,000  Level FlightAware ADS-B
Thu 06:02:36 AM 32.0900 -105.1640 101° East 457 526 37,000  Level FlightAware ADS-B
Thu 06:03:12 AM 32.0770 -105.0890 102° East 457 526 37,000  Level FlightAware ADS-B
Thu 06:04:00 AM 32.0610 -104.9890 101° East 457 526 37,000  Level FlightAware ADS-B
Thu 06:04:36 AM 32.0490 -104.9140 101° East 457 526 37,000  Level FlightAware ADS-B
Thu 06:05:24 AM 32.0320 -104.8140 101° East 457 526 37,000  Level FlightAware ADS-B
Thu 06:06:00 AM 32.0200 -104.7390 101° East 457 526 37,000  Level FlightAware ADS-B
Thu 06:06:46 AM 31.9490 -104.4020 104° East 456 525 37,000  Level FlightAware ADS-B
Thu 06:07:31 AM 31.9290 -104.2930 102° East 456 525 37,000  Level FlightAware ADS-B
Thu 06:08:42 AM 31.9040 -104.1430 101° East 456 525 37,000  Level FlightAware ADS-B
Thu 06:09:20 AM 31.8910 -104.0640 101° East 456 525 37,000  Level FlightAware ADS-B
Thu 06:09:56 AM 31.8790 -103.9900 101° East 456 525 37,000  Level FlightAware ADS-B
Thu 06:10:44 AM 31.8620 -103.8900 101° East 456 525 37,000  Level FlightAware ADS-B
Thu 06:11:44 AM 31.8420 -103.7660 101° East 456 525 37,000  Level FlightAware ADS-B
Thu 06:12:22 AM 31.8290 -103.6870 101° East 456 525 37,000  Level FlightAware ADS-B
Thu 06:12:58 AM 31.8160 -103.6120 102° East 456 525 37,000  Level FlightAware ADS-B
Thu 06:13:49 AM 31.7990 -103.5070 101° East 456 525 37,000  Level FlightAware ADS-B
Thu 06:14:26 AM 31.7860 -103.4300 101° East 456 525 37,000  Level FlightAware ADS-B
Thu 06:20:02 AM 31.6310 -102.4920 101° East 449 517 37,000  Level FlightAware ADS-B
Thu 06:20:42 AM 31.6210 -102.3970 97° East 449 517 37,000  Level FlightAware ADS-B
Thu 06:21:26 AM 31.6090 -102.2880 97° East 448 516 37,000  Level FlightAware ADS-B
Thu 06:22:10 AM 31.5980 -102.1810 97° East 448 516 37,000  Level FlightAware ADS-B
Thu 06:22:50 AM 31.5880 -102.0850 97° East 447 514 37,000  Level FlightAware ADS-B
Thu 06:23:30 AM 31.5780 -101.9890 97° East 448 516 37,000  Level FlightAware ADS-B
Thu 06:24:14 AM 31.5660 -101.8830 98° East 447 514 37,000  Level FlightAware ADS-B
Thu 06:24:54 AM 31.5560 -101.7870 97° East 447 514 37,000  Level FlightAware ADS-B
Thu 06:25:34 AM 31.5450 -101.6920 98° East 446 513 37,000  Level FlightAware ADS-B
Thu 06:26:20 AM 31.5330 -101.5820 97° East 445 512 37,000  Level FlightAware ADS-B
Thu 06:27:04 AM 31.5210 -101.4760 98° East 443 510 37,000  Level FlightAware ADS-B
Thu 06:27:46 AM 31.5100 -101.3780 97° East 441 507 37,000  Level FlightAware ADS-B
Thu 06:28:26 AM 31.4990 -101.2820 98° East 441 507 37,000  Level FlightAware ADS-B
Thu 06:29:06 AM 31.4880 -101.1860 98° East 441 507 37,000  Level FlightAware ADS-B
Thu 06:29:48 AM 31.4770 -101.0880 97° East 441 507 37,000  Level FlightAware ADS-B
Thu 06:30:12 AM 31.4710 -101.0320 97° East 441 507 37,000  Level FlightAware ADS-B
Thu 06:32:46 AM 31.4340 -100.7130 98° East 444 511 37,000  Level FlightAware ADS-B
Thu 06:33:28 AM 31.4160 -100.5680 98° East 446 513 37,000  Level FlightAware ADS-B
Thu 06:34:10 AM 31.4040 -100.4640 98° East 447 514 37,000  Level FlightAware ADS-B
Thu 06:34:54 AM 31.3920 -100.3600 98° East 446 513 37,000  Level FlightAware ADS-B
Thu 06:35:36 AM 31.3790 -100.2590 99° East 446 513 37,000  Level FlightAware ADS-B
Thu 06:36:10 AM 31.3690 -100.1790 98° East 446 513 37,000  Level FlightAware ADS-B
Thu 06:36:51 AM 31.3570 -100.0820 98° East 445 512 37,000  Level FlightAware ADS-B
Thu 06:37:40 AM 31.3430 -99.9630 98° East 446 513 37,000  Level FlightAware ADS-B
Thu 06:38:22 AM 31.3300 -99.8630 99° East 447 514 37,000  Level FlightAware ADS-B
Thu 06:39:04 AM 31.3180 -99.7620 98° East 447 514 37,000  Level FlightAware ADS-B
Thu 06:39:44 AM 31.3060 -99.6700 99° East 445 512 37,000  Level FlightAware ADS-B
Thu 06:40:22 AM 31.2940 -99.5790 99° East 444 511 37,000  Level FlightAware ADS-B
Thu 06:41:10 AM 31.2800 -99.4640 98° East 444 511 37,000  Level FlightAware ADS-B
Thu 06:41:52 AM 31.2670 -99.3640 99° East 444 511 37,000  Level FlightAware ADS-B
Thu 06:42:35 AM 31.2540 -99.2640 99° East 443 510 37,000  Level FlightAware ADS-B
Thu 06:43:17 AM 31.2410 -99.1650 99° East 440 506 37,000  Level FlightAware ADS-B
Thu 06:43:58 AM 31.2290 -99.0690 98° East 437 503 37,000  Level FlightAware ADS-B
Thu 06:44:39 AM 31.2160 -98.9710 99° East 435 501 37,000  Level FlightAware ADS-B
Thu 06:45:27 AM 31.2011 -98.8612 99° East 434 499 37,000 -68 Level FlightAware ADS-B
Thu 06:46:07 AM 31.1885 -98.7676 99° East 436 502 36,900  Descending FlightAware ADS-B
Thu 06:46:41 AM 31.1780 -98.6900 99° East 435 501 37,000 94 Climbing FlightAware ADS-B
Thu 06:47:11 AM 31.1684 -98.6194 99° East 435 501 37,000  Level FlightAware ADS-B
Thu 06:47:41 AM 31.1591 -98.5499 99° East 436 502 37,000  Level FlightAware ADS-B
Thu 06:48:13 AM 31.1493 -98.4772 99° East 435 501 37,000  Level FlightAware ADS-B
Thu 06:48:48 AM 31.1380 -98.3951 99° East 435 501 37,000  Level FlightAware ADS-B
Thu 06:49:21 AM 31.1275 -98.3192 99° East 434 499 37,000  Level FlightAware ADS-B
Thu 06:49:54 AM 31.1171 -98.2425 99° East 433 498 37,000  Level FlightAware ADS-B
Thu 06:50:27 AM 31.1066 -98.1670 99° East 434 499 37,000  Level FlightAware ADS-B
Thu 06:50:57 AM 31.0969 -98.0975 99° East 434 499 37,000  Level FlightAware ADS-B
Thu 06:51:29 AM 31.0866 -98.0243 99° East 434 499 37,000  Level FlightAware ADS-B
Thu 06:52:01 AM 31.0764 -97.9518 99° East 435 501 37,000  Level FlightAware ADS-B
Thu 06:52:32 AM 31.0663 -97.8802 99° East 436 502 37,000  Level FlightAware ADS-B
Thu 06:52:51 AM 31.0599 -97.8350 99° East 437 503 37,000  Level FlightAware ADS-B
Thu 06:53:02 AM 31.0562 -97.8091 99° East 437 503 37,000  Level FlightAware ADS-B
Thu 06:53:26 AM 31.0482 -97.7526 99° East 438 504 37,000  Level FlightAware ADS-B
Thu 06:53:33 AM 31.0462 -97.7383 99° East 438 504 37,000  Level FlightAware ADS-B
Thu 06:54:03 AM 31.0363 -97.6692 99° East 439 505 37,000  Level FlightAware ADS-B
Thu 06:54:10 AM 31.0338 -97.6510 99° East 439 505 37,000  Level FlightAware ADS-B
Thu 06:54:34 AM 31.0259 -97.5955 99° East 439 505 37,000  Level FlightAware ADS-B
Thu 06:54:58 AM 31.0180 -97.5406 100° East 439 505 37,000  Level FlightAware ADS-B
Thu 06:55:05 AM 31.0157 -97.5246 100° East 439 505 37,000  Level FlightAware ADS-B
Thu 06:55:35 AM 31.0055 -97.4533 99° East 440 506 37,000  Level FlightAware ADS-B
Thu 06:56:06 AM 30.9952 -97.3823 100° East 439 505 37,000  Level FlightAware ADS-B
Thu 06:56:36 AM 30.9848 -97.3115 100° East 438 504 37,000  Level FlightAware ADS-B
Thu 06:57:17 AM 30.9724 -97.2163 96° East 438 504 37,000  Level FlightAware ADS-B
Thu 06:57:58 AM 30.9821 -97.1212 81° East 436 502 37,000 -529 Level FlightAware ADS-B
Thu 06:58:59 AM 31.0017 -96.9811 81° East 430 495 36,100 -1,319 Descending FlightAware ADS-B
Thu 06:59:29 AM 31.0119 -96.9114 80° East 426 490 35,000 -2,500 Descending FlightAware ADS-B
Thu 06:59:59 AM 31.0220 -96.8431 80° East 428 493 33,600 -2,351 Descending FlightAware ADS-B
Thu 07:02:20 AM 31.0726 -96.5160 80° East 444 511 28,300 -2,286 Descending FlightAware ADS-B
Thu 07:02:26 AM 31.0741 -96.5023 83° East 445 512 28,000 -3,300 Descending FlightAware ADS-B
Thu 07:02:40 AM 31.0739 -96.4681 93° East 448 516 27,200 -3,300 Descending FlightAware ADS-B
Thu 07:02:46 AM 31.0720 -96.4538 99° East 449 517 26,900 -2,769 Descending FlightAware ADS-B
Thu 07:02:53 AM 31.0691 -96.4388 103° East 448 516 26,600 -2,609 Descending FlightAware ADS-B
Thu 07:03:09 AM 31.0575 -96.4032 113° Southeast 440 506 25,900 -3,000 Descending FlightAware ADS-B
Thu 07:03:17 AM 31.0496 -96.3866 119° Southeast 435 501 25,400 -3,545 Descending FlightAware ADS-B
Thu 07:03:31 AM 31.0333 -96.3609 129° Southeast 429 494 24,600 -3,900 Descending FlightAware ADS-B
Thu 07:03:37 AM 31.0241 -96.3496 134° Southeast 429 494 24,100 -4,500 Descending FlightAware ADS-B
Thu 07:03:43 AM 31.0166 -96.3415 137° Southeast 428 493 23,700 -4,615 Descending FlightAware ADS-B
Thu 07:03:50 AM 31.0053 -96.3310 141° Southeast 428 493 23,100 -3,429 Descending FlightAware ADS-B
Thu 07:04:46 AM 30.9167 -96.2557 144° Southeast 417 480 20,100 -2,791 Descending FlightAware ADS-B
Thu 07:05:16 AM 30.8709 -96.2160 143° Southeast 402 463 19,100 -2,100 Descending FlightAware ADS-B
Thu 07:05:46 AM 30.8264 -96.1784 144° Southeast 390 449 18,000 -2,835 Descending FlightAware ADS-B
Thu 07:06:47 AM 30.7383 -96.1037 144° Southeast 383 441 14,800 -2,705 Descending FlightAware ADS-B
Thu 07:07:48 AM 30.6537 -96.0317 144° Southeast 361 415 12,500 -2,213 Descending FlightAware ADS-B
Thu 07:08:49 AM 30.5740 -95.9643 144° Southeast 348 400 10,300 -1,714 Descending FlightAware ADS-B
Thu 07:09:19 AM 30.5353 -95.9314 144° Southeast 324 373 9,900 -522 Descending FlightAware ADS-B
Thu 07:09:35 AM 30.5173 -95.9164 144° Southeast 304 350 9,900  Level FlightAware ADS-B
Thu 07:09:50 AM 30.5006 -95.9023 144° Southeast 294 338 9,900  Level FlightAware ADS-B
Thu 07:10:31 AM 30.4559 -95.8645 144° Southeast 291 335 9,900  Level FlightAware ADS-B
Thu 07:11:01 AM 30.4256 -95.8335 138° Southeast 290 334 9,900  Level FlightAware ADS-B
Thu 07:11:04 AM 30.4225 -95.8307 142° Southeast 290 334 9,900 -375 Level FlightAware ADS-B
Thu 07:11:17 AM 30.4065 -95.8215 162° South 293 337 9,800 -600 Descending FlightAware ADS-B
Thu 07:11:24 AM 30.3966 -95.8195 172° South 295 339 9,700 -1,333 Descending FlightAware ADS-B
Thu 07:11:53 AM 30.3584 -95.8163 176° South 294 338 9,000 -1,444 Descending FlightAware ADS-B
Thu 07:12:18 AM 30.3238 -95.8133 175° South 290 334 8,400 -1,179 Descending FlightAware ADS-B
Thu 07:12:49 AM 30.2828 -95.8093 175° South 297 342 7,900 -313 Descending FlightAware ADS-B
Thu 07:13:54 AM 30.2002 -95.8012 178° South 250 288 7,900  Level FlightAware ADS-B
Thu 07:13:59 AM 30.1949 -95.8012 180° South 250 288 7,900  Level FlightAware ADS-B
Thu 07:14:04 AM 30.1889 -95.8015 182° South 248 285 7,900  Level FlightAware ADS-B
Thu 07:14:16 AM 30.1753 -95.8028 185° South 248 285 7,900 -316 Level FlightAware ADS-B
Thu 07:15:01 AM 30.1234 -95.8080 185° South 246 283 7,600 -517 Descending FlightAware ADS-B
Thu 07:15:14 AM 30.1090 -95.8094 185° South 245 282 7,400 -1,071 Descending FlightAware ADS-B
Thu 07:15:29 AM 30.0922 -95.8108 184° South 244 281 7,100 -1,161 Descending FlightAware ADS-B
Thu 07:15:45 AM 30.0738 -95.8123 184° South 241 277 6,800 -938 Descending FlightAware ADS-B
Thu 07:16:01 AM 30.0564 -95.8139 185° South 236 272 6,600 -1,125 Descending FlightAware ADS-B
Thu 07:16:17 AM 30.0393 -95.8156 185° South 236 272 6,200 -1,579 Descending FlightAware ADS-B
Thu 07:16:20 AM 30.0360 -95.8158 183° South 236 272 6,100 -2,000 Descending FlightAware ADS-B
Thu 07:16:23 AM 30.0326 -95.8156 177° South 238 274 6,000 -857 Descending FlightAware ADS-B
Thu 07:16:27 AM 30.0288 -95.8149 171° South 239 275 6,000 -857 Level FlightAware ADS-B
Thu 07:16:30 AM 30.0254 -95.8138 164° South 240 276 5,900 -2,000 Descending FlightAware ADS-B
Thu 07:16:33 AM 30.0217 -95.8120 157° South 240 276 5,800 -2,000 Descending FlightAware ADS-B
Thu 07:16:36 AM 30.0188 -95.8100 149° Southeast 240 276 5,700 -1,000 Descending FlightAware ADS-B
Thu 07:16:39 AM 30.0161 -95.8076 142° Southeast 239 275 5,700  Level FlightAware ADS-B
Thu 07:16:43 AM 30.0134 -95.8044 134° Southeast 238 274 5,700 -857 Level FlightAware ADS-B
Thu 07:16:46 AM 30.0110 -95.8011 130° Southeast 237 273 5,600 -750 Descending FlightAware ADS-B
Thu 07:16:51 AM 30.0084 -95.7969 126° Southeast 235 270 5,600 -300 Level FlightAware ADS-B
Thu 07:17:06 AM 29.9994 -95.7810 123° Southeast 232 267 5,500 -600 Descending FlightAware ADS-B
Thu 07:17:11 AM 29.9969 -95.7750 116° Southeast 232 267 5,400 -667 Descending FlightAware ADS-B
Thu 07:17:15 AM 29.9956 -95.7705 108° East 232 267 5,400  Level FlightAware ADS-B
Thu 07:17:18 AM 29.9948 -95.7670 105° East 231 266 5,400 -1,000 Level FlightAware ADS-B
Thu 07:17:21 AM 29.9941 -95.7634 103° East 231 266 5,300 -857 Descending FlightAware ADS-B
Thu 07:17:25 AM 29.9935 -95.7583 98° East 232 267 5,300  Level FlightAware ADS-B
Thu 07:17:29 AM 29.9932 -95.7537 94° East 233 268 5,300 -750 Level FlightAware ADS-B
Thu 07:17:33 AM 29.9929 -95.7488 94° East 233 268 5,200 -800 Descending FlightAware ADS-B
Thu 07:17:44 AM 29.9926 -95.7351 91° East 233 268 5,100 -444 Descending FlightAware ADS-B
Thu 07:18:00 AM 29.9927 -95.7152 90° East 234 269 5,000 -231 Descending FlightAware ADS-B
Thu 07:18:10 AM 29.9927 -95.7024 90° East 226 260 5,000 -231 Level FlightAware ADS-B
Thu 07:18:26 AM 29.9927 -95.6844 90° East 213 245 4,900 -387 Descending FlightAware ADS-B
Thu 07:18:41 AM 29.9928 -95.6674 90° East 206 237 4,800 -400 Descending FlightAware ADS-B
Thu 07:18:56 AM 29.9929 -95.6508 90° East 205 236 4,700 -563 Descending FlightAware ADS-B
Thu 07:19:13 AM 29.9929 -95.6329 90° East 205 236 4,500 -938 Descending FlightAware ADS-B
Thu 07:19:28 AM 29.9929 -95.6163 90° East 205 236 4,200 -1,000 Descending FlightAware ADS-B
Thu 07:19:43 AM 29.9930 -95.6004 90° East 205 236 4,000 -1,000 Descending FlightAware ADS-B
Thu 07:19:58 AM 29.9931 -95.5834 90° East 206 237 3,700 -1,200 Descending FlightAware ADS-B
Thu 07:20:13 AM 29.9931 -95.5663 90° East 207 238 3,400 -1,161 Descending FlightAware ADS-B
Thu 07:20:29 AM 29.9931 -95.5495 90° East 209 241 3,100 -968 Descending FlightAware ADS-B
Thu 07:20:44 AM 29.9931 -95.5328 90° East 205 236 2,900 -1,000 Descending FlightAware ADS-B
Thu 07:20:59 AM 29.9932 -95.5165 90° East 202 232 2,600 -1,161 Descending FlightAware ADS-B
Thu 07:21:15 AM 29.9932 -95.4994 90° East 198 228 2,300 -938 Descending FlightAware ADS-B
Thu 07:21:31 AM 29.9933 -95.4822 90° East 196 226 2,100 -1,000 Descending FlightAware ADS-B
Thu 07:21:45 AM 29.9933 -95.4675 90° East 195 224 1,800 -1,000 Descending FlightAware ADS-B
Thu 07:22:01 AM 29.9933 -95.4514 90° East 188 216 1,600 -828 Descending FlightAware ADS-B
Thu 07:22:14 AM 29.9933 -95.4385 90° East 179 206 1,400 -968 Descending FlightAware ADS-B
Thu 07:22:32 AM 29.9933 -95.4224 90° East 162 186 1,100 -938 Descending FlightAware ADS-B
Thu 07:22:46 AM 29.9934 -95.4107 89° East 149 171 900 -800 Descending FlightAware ADS-B
Thu 07:23:02 AM 29.9933 -95.3987 91° East 141 162 700 -667 Descending FlightAware ADS-B
Thu 07:23:13 AM 29.9934 -95.3909 89° East 135 155 600 -692 Descending FlightAware ADS-B
Thu 07:23:28 AM 29.9934 -95.3798 90° East 135 155 400 -667 Descending FlightAware ADS-B
Thu 07:23:40 AM 29.9933 -95.3714 91° East 134 154 300 -667 Descending FlightAware ADS-B
Thu 07:23:55 AM 29.9934 -95.3607 89° East 133 153 100 -800 Descending FlightAware ADS-B

Login

Don't have an account? Register now (free) for customized features, flight alerts, and more!